John_paul K — PBHY — position and weather

sailwx.info

Track history (hours):
 
Tides and Currents Weather Stations Pressure Air Temp Water Temp Dewpoint Dewpoint Depression Visibility Wind Speed Wind Dir Waves Ship Positions

John_paul K

Last reported at 2014-Oct-19 09:33 UTC. Time now 2014-Oct-22 09:42 UTC.
Position N 38°12' W 009°41'.

Length 90 m; draft 5.9 m.

Type: Cargo ship. MMSI: 245181000.

Date/timePositionNaut miles runAvg speedWind from/ knotsBaromVisibWave heightAir tempDewpointWater temp
2014-Oct-19 09:33N 38°12' W 009°41'8 8.3
2014-Oct-19 08:33N 38°03' W 009°38'1010.5
2014-Oct-19 07:33N 37°53' W 009°35'8 7.8
2014-Oct-19 06:33N 37°46' W 009°33'8 7.8
2014-Oct-19 05:33N 37°38' W 009°31'9 7.8
2014-Oct-19 04:22N 37°29' W 009°28'6 8.0
2014-Oct-19 03:33N 37°23' W 009°26'20 8.3
2014-Oct-19 01:05N 37°03' W 009°21'12 7.9
2014-Oct-18 23:31N 36°51' W 009°15'29 7.4
2014-Oct-18 19:33N 36°39' W 008°42'8 7.7
2014-Oct-18 18:30N 36°37' W 008°32'147 8.0
2014-Oct-18 00:15N 35°58' W 005°37'5 7.5
2014-Oct-17 23:33N 35°59' W 005°31'7 7.5
2014-Oct-17 22:33N 36°00' W 005°22'7 6.9
2014-Oct-17 21:33N 36°01' W 005°13'252 8.1
2014-Oct-16 14:32N 37°05' W 000°09'  
2014-Oct-14 08:29N 39°47' E 008°20'12 2.4
2014-Oct-14 03:32N 39°52' E 008°34'0 0.0
2014-Oct-14 01:26N 39°52' E 008°34'0 0.0
2014-Oct-13 03:31N 39°52' E 008°34'0 0.0
2014-Oct-13 02:31N 39°52' E 008°34'0 0.0
2014-Oct-13 01:28N 39°52' E 008°34'0 0.0
2014-Oct-13 00:25N 39°52' E 008°34'0 0.0
2014-Oct-12 23:25N 39°52' E 008°34'0 0.0
2014-Oct-12 22:28N 39°52' E 008°34'0 0.0
2014-Oct-12 21:28N 39°52' E 008°34'0 0.0
2014-Oct-12 20:28N 39°52' E 008°34'0 0.0
2014-Oct-12 19:31N 39°52' E 008°34'0 0.0
2014-Oct-12 18:25N 39°52' E 008°34'0 0.0
2014-Oct-12 17:31N 39°52' E 008°34'0 0.0
2014-Oct-12 07:28N 39°52' E 008°34'0 0.0
2014-Oct-12 03:33N 39°52' E 008°34'0 0.0
2014-Oct-12 02:33N 39°52' E 008°34'0 0.0
2014-Oct-12 01:30N 39°52' E 008°34'0 0.0
2014-Oct-12 00:30N 39°52' E 008°34'0 0.0
2014-Oct-11 23:33N 39°52' E 008°34'0 0.0
2014-Oct-11 22:33N 39°52' E 008°34'0 0.0
2014-Oct-11 21:33N 39°52' E 008°34'0 0.0
2014-Oct-11 20:33N 39°52' E 008°34'0 0.0
2014-Oct-11 19:33N 39°52' E 008°34'0 0.0
2014-Oct-11 18:33N 39°52' E 008°34'0 0.0
2014-Oct-11 17:33N 39°52' E 008°34'0 0.0
2014-Oct-11 16:33N 39°52' E 008°34'0 0.0
2014-Oct-11 06:12N 39°52' E 008°34'0 0.0
2014-Oct-11 05:30N 39°52' E 008°34'0 0.0
2014-Oct-11 04:30N 39°52' E 008°34'0 0.0
2014-Oct-11 03:18N 39°52' E 008°34'0 0.0
2014-Oct-10 23:15N 39°52' E 008°34'0 0.0
2014-Oct-10 21:23N 39°52' E 008°34'0 0.0
2014-Oct-10 17:29N 39°52' E 008°34'0 0.0
2014-Oct-10 16:32N 39°52' E 008°34'0 0.0
2014-Oct-10 09:05N 39°52' E 008°34'0 0.0
2014-Oct-10 08:14N 39°52' E 008°34'0 0.0
2014-Oct-10 07:29N 39°52' E 008°34'0 0.0
2014-Oct-10 06:32N 39°52' E 008°34'0 0.0
2014-Oct-10 05:26N 39°52' E 008°34'0 0.0
2014-Oct-10 04:23N 39°52' E 008°34'0 0.0
2014-Oct-10 03:29N 39°52' E 008°34'0 0.0
2014-Oct-10 02:32N 39°52' E 008°34'0 0.0
2014-Oct-10 01:32N 39°52' E 008°34'0 0.0
2014-Oct-10 00:26N 39°52' E 008°34'0 0.0
2014-Oct-09 23:32N 39°52' E 008°34'0 0.0
2014-Oct-09 22:32N 39°52' E 008°34'0 0.0
2014-Oct-09 21:32N 39°52' E 008°34'0 0.0
2014-Oct-09 20:32N 39°52' E 008°34'0 0.0
2014-Oct-09 19:32N 39°52' E 008°34'0 0.0
2014-Oct-09 18:32N 39°52' E 008°34'0 0.0
2014-Oct-09 17:32N 39°52' E 008°34'0 0.0
2014-Oct-09 16:32N 39°52' E 008°34'  
Track history (hours):
 
Tides and Currents Weather Stations Pressure Air Temp Water Temp Dewpoint Dewpoint Depression Visibility Wind Speed Wind Dir Waves Ship Positions

John_paul K

Last reported at 2014-Oct-19 09:33 UTC. Time now 2014-Oct-22 09:42 UTC.
Position N 38°12' W 009°41'.

Length 90 m; draft 5.9 m.

Type: Cargo ship. MMSI: 245181000.

Date/timePositionNaut miles runAvg speedWind from/ knotsBaromVisibWave heightAir tempDewpointWater temp
2014-Oct-19 09:33N 38°12' W 009°41'8 8.3
2014-Oct-19 08:33N 38°03' W 009°38'1010.5
2014-Oct-19 07:33N 37°53' W 009°35'8 7.8
2014-Oct-19 06:33N 37°46' W 009°33'8 7.8
2014-Oct-19 05:33N 37°38' W 009°31'9 7.8
2014-Oct-19 04:22N 37°29' W 009°28'6 8.0
2014-Oct-19 03:33N 37°23' W 009°26'20 8.3
2014-Oct-19 01:05N 37°03' W 009°21'12 7.9
2014-Oct-18 23:31N 36°51' W 009°15'29 7.4
2014-Oct-18 19:33N 36°39' W 008°42'8 7.7
2014-Oct-18 18:30N 36°37' W 008°32'147 8.0
2014-Oct-18 00:15N 35°58' W 005°37'5 7.5
2014-Oct-17 23:33N 35°59' W 005°31'7 7.5
2014-Oct-17 22:33N 36°00' W 005°22'7 6.9
2014-Oct-17 21:33N 36°01' W 005°13'252 8.1
2014-Oct-16 14:32N 37°05' W 000°09'  
2014-Oct-14 08:29N 39°47' E 008°20'12 2.4
2014-Oct-14 03:32N 39°52' E 008°34'0 0.0
2014-Oct-14 01:26N 39°52' E 008°34'0 0.0
2014-Oct-13 03:31N 39°52' E 008°34'0 0.0
2014-Oct-13 02:31N 39°52' E 008°34'0 0.0
2014-Oct-13 01:28N 39°52' E 008°34'0 0.0
2014-Oct-13 00:25N 39°52' E 008°34'0 0.0
2014-Oct-12 23:25N 39°52' E 008°34'0 0.0
2014-Oct-12 22:28N 39°52' E 008°34'0 0.0
2014-Oct-12 21:28N 39°52' E 008°34'0 0.0
2014-Oct-12 20:28N 39°52' E 008°34'0 0.0
2014-Oct-12 19:31N 39°52' E 008°34'0 0.0
2014-Oct-12 18:25N 39°52' E 008°34'0 0.0
2014-Oct-12 17:31N 39°52' E 008°34'0 0.0
2014-Oct-12 07:28N 39°52' E 008°34'0 0.0
2014-Oct-12 03:33N 39°52' E 008°34'0 0.0
2014-Oct-12 02:33N 39°52' E 008°34'0 0.0
2014-Oct-12 01:30N 39°52' E 008°34'0 0.0
2014-Oct-12 00:30N 39°52' E 008°34'0 0.0
2014-Oct-11 23:33N 39°52' E 008°34'0 0.0
2014-Oct-11 22:33N 39°52' E 008°34'0 0.0
2014-Oct-11 21:33N 39°52' E 008°34'0 0.0
2014-Oct-11 20:33N 39°52' E 008°34'0 0.0
2014-Oct-11 19:33N 39°52' E 008°34'0 0.0
2014-Oct-11 18:33N 39°52' E 008°34'0 0.0
2014-Oct-11 17:33N 39°52' E 008°34'0 0.0
2014-Oct-11 16:33N 39°52' E 008°34'0 0.0
2014-Oct-11 06:12N 39°52' E 008°34'0 0.0
2014-Oct-11 05:30N 39°52' E 008°34'0 0.0
2014-Oct-11 04:30N 39°52' E 008°34'0 0.0
2014-Oct-11 03:18N 39°52' E 008°34'0 0.0
2014-Oct-10 23:15N 39°52' E 008°34'0 0.0
2014-Oct-10 21:23N 39°52' E 008°34'0 0.0
2014-Oct-10 17:29N 39°52' E 008°34'0 0.0
2014-Oct-10 16:32N 39°52' E 008°34'0 0.0
2014-Oct-10 09:05N 39°52' E 008°34'0 0.0
2014-Oct-10 08:14N 39°52' E 008°34'0 0.0
2014-Oct-10 07:29N 39°52' E 008°34'0 0.0
2014-Oct-10 06:32N 39°52' E 008°34'0 0.0
2014-Oct-10 05:26N 39°52' E 008°34'0 0.0
2014-Oct-10 04:23N 39°52' E 008°34'0 0.0
2014-Oct-10 03:29N 39°52' E 008°34'0 0.0
2014-Oct-10 02:32N 39°52' E 008°34'0 0.0
2014-Oct-10 01:32N 39°52' E 008°34'0 0.0
2014-Oct-10 00:26N 39°52' E 008°34'0 0.0
2014-Oct-09 23:32N 39°52' E 008°34'0 0.0
2014-Oct-09 22:32N 39°52' E 008°34'0 0.0
2014-Oct-09 21:32N 39°52' E 008°34'0 0.0
2014-Oct-09 20:32N 39°52' E 008°34'0 0.0
2014-Oct-09 19:32N 39°52' E 008°34'0 0.0
2014-Oct-09 18:32N 39°52' E 008°34'0 0.0
2014-Oct-09 17:32N 39°52' E 008°34'0 0.0
2014-Oct-09 16:32N 39°52' E 008°34'  

Dump ship's entire track history